Time;durP1;ratioP1;P1;durP2;ratioP2;P2;SDS_P1;SDS_P2;PMS_P1;PMS_P2;Temp;Humidity;BMP_temperature;BMP_pressure;BME280_temperature;BME280_humidity;BME280_pressure;Samples;Min_cycle;Max_cycle;Signal;HPM_P1;HPM_P2
2021/07/22 00:00:29;;;;;;;17.77;12.93;;;15.80;99.90;;;;;;5083275;28;20755;-82
2021/07/22 00:02:55;;;;;;;19.30;13.17;;;15.80;99.90;;;;;;5084887;28;20689;-82
2021/07/22 00:05:21;;;;;;;18.20;13.23;;;15.70;99.90;;;;;;5081871;28;20205;-82
2021/07/22 00:07:47;;;;;;;16.77;11.83;;;15.80;99.90;;;;;;5084300;28;20268;-81
2021/07/22 00:10:14;;;;;;;17.67;12.27;;;15.70;99.90;;;;;;5091800;28;20183;-83
2021/07/22 00:12:40;;;;;;;16.53;11.77;;;15.70;99.90;;;;;;5091212;28;20203;-83
2021/07/22 00:15:07;;;;;;;17.00;12.53;;;15.70;99.90;;;;;;5096160;28;20519;-84
2021/07/22 00:17:33;;;;;;;18.67;12.80;;;15.70;99.90;;;;;;5092909;28;20178;-83
2021/07/22 00:20:00;;;;;;;16.57;12.23;;;15.60;99.90;;;;;;5076214;28;20560;-82
2021/07/22 00:22:27;;;;;;;17.70;12.57;;;15.60;99.90;;;;;;5085787;28;20211;-83
2021/07/22 00:24:53;;;;;;;18.83;13.17;;;15.60;99.90;;;;;;5083924;28;20199;-83
2021/07/22 00:27:19;;;;;;;18.03;12.67;;;15.60;99.90;;;;;;5082259;28;20216;-83
2021/07/22 00:29:45;;;;;;;19.10;13.70;;;15.60;99.90;;;;;;5081707;28;20173;-82
2021/07/22 00:32:10;;;;;;;19.60;12.97;;;15.50;99.90;;;;;;5088589;28;20200;-82
2021/07/22 00:34:39;;;;;;;19.03;13.30;;;15.50;99.90;;;;;;5100017;28;20168;-83
2021/07/22 00:37:06;;;;;;;22.87;13.43;;;15.50;99.90;;;;;;5095283;28;20528;-83
2021/07/22 00:39:33;;;;;;;18.90;13.33;;;15.50;99.90;;;;;;5088315;28;20237;-83
2021/07/22 00:42:00;;;;;;;18.63;13.03;;;15.40;99.90;;;;;;5089298;28;20199;-83
2021/07/22 00:44:26;;;;;;;19.70;13.33;;;15.40;99.90;;;;;;5089464;28;20182;-83
2021/07/22 00:46:51;;;;;;;21.50;13.13;;;15.30;99.90;;;;;;5089533;28;20617;-83
2021/07/22 00:49:17;;;;;;;19.73;13.93;;;15.30;99.90;;;;;;5088019;28;20181;-83
2021/07/22 00:51:43;;;;;;;23.10;14.10;;;15.20;99.90;;;;;;5090367;28;20223;-83
2021/07/22 00:54:08;;;;;;;18.80;13.40;;;15.20;99.90;;;;;;5087002;28;20188;-83
2021/07/22 00:56:34;;;;;;;20.50;13.93;;;15.20;99.90;;;;;;5089205;28;20183;-83
2021/07/22 00:59:03;;;;;;;18.03;13.30;;;15.20;99.90;;;;;;5086726;28;20245;-83
2021/07/22 01:01:29;;;;;;;19.87;12.90;;;15.10;99.90;;;;;;5087602;28;20200;-83
2021/07/22 01:03:55;;;;;;;19.70;13.30;;;15.10;99.90;;;;;;5085452;28;20698;-83
2021/07/22 01:06:21;;;;;;;22.20;13.23;;;15.10;99.90;;;;;;5083757;28;20237;-82
2021/07/22 01:08:46;;;;;;;24.27;13.17;;;15.10;99.90;;;;;;5084943;28;20212;-82
2021/07/22 01:11:12;;;;;;;19.80;13.33;;;15.00;99.90;;;;;;5087543;28;20180;-83
2021/07/22 01:13:38;;;;;;;18.57;12.73;;;15.00;99.90;;;;;;5084397;28;20177;-82
2021/07/22 01:16:04;;;;;;;19.13;13.23;;;14.90;99.90;;;;;;5084942;28;20188;-83
2021/07/22 01:18:29;;;;;;;19.67;12.77;;;14.90;99.90;;;;;;5085027;28;20176;-82
2021/07/22 01:20:55;;;;;;;21.60;14.00;;;14.90;99.90;;;;;;5088607;28;20172;-84
2021/07/22 01:23:21;;;;;;;21.97;14.03;;;14.80;99.90;;;;;;5089355;28;20284;-83
2021/07/22 01:25:47;;;;;;;21.73;13.50;;;14.80;99.90;;;;;;5088118;28;20248;-83
2021/07/22 01:28:13;;;;;;;19.27;13.10;;;14.80;99.90;;;;;;5089102;28;20183;-83
2021/07/22 01:30:39;;;;;;;21.70;14.17;;;14.70;99.90;;;;;;5089536;28;20200;-83
2021/07/22 01:33:05;;;;;;;18.43;13.03;;;14.70;99.90;;;;;;5090295;28;20228;-83
2021/07/22 01:35:31;;;;;;;18.53;13.50;;;14.70;99.90;;;;;;5090331;28;20176;-83
2021/07/22 01:37:57;;;;;;;18.23;13.27;;;14.70;99.90;;;;;;5086231;28;20634;-83
2021/07/22 01:40:22;;;;;;;18.10;12.63;;;14.70;99.90;;;;;;5085077;28;20184;-83
2021/07/22 01:42:48;;;;;;;20.03;14.27;;;14.60;99.90;;;;;;5084568;28;20200;-83
2021/07/22 01:45:14;;;;;;;18.27;13.13;;;14.60;99.90;;;;;;5084127;28;20177;-83
2021/07/22 01:47:41;;;;;;;19.83;13.13;;;14.50;99.90;;;;;;5084882;28;20193;-83
2021/07/22 01:50:07;;;;;;;20.47;13.17;;;14.50;99.90;;;;;;5084442;28;20165;-83
2021/07/22 01:52:33;;;;;;;18.53;13.13;;;14.50;99.90;;;;;;5082304;28;20192;-83
2021/07/22 01:54:59;;;;;;;18.50;12.07;;;14.60;99.90;;;;;;5082183;28;20183;-83
2021/07/22 01:57:25;;;;;;;17.97;13.67;;;14.60;99.90;;;;;;5082094;28;20179;-83
2021/07/22 01:59:51;;;;;;;21.47;13.30;;;14.50;99.90;;;;;;5079621;28;20181;-82
2021/07/22 02:02:16;;;;;;;18.93;13.13;;;14.50;99.90;;;;;;5078315;28;20197;-82
2021/07/22 02:04:42;;;;;;;21.40;13.40;;;14.50;99.90;;;;;;5087336;28;20193;-83
2021/07/22 02:07:10;;;;;;;18.37;12.77;;;14.40;99.90;;;;;;5085470;28;20211;-83
2021/07/22 02:09:36;;;;;;;18.87;13.30;;;14.40;99.90;;;;;;5084861;28;20173;-83
2021/07/22 02:12:02;;;;;;;19.97;12.80;;;14.30;99.90;;;;;;5085909;28;20559;-83
2021/07/22 02:14:28;;;;;;;19.77;12.93;;;14.30;99.90;;;;;;5084578;28;20267;-83
2021/07/22 02:16:54;;;;;;;23.10;13.80;;;14.20;99.90;;;;;;5085699;28;20630;-82
2021/07/22 02:19:20;;;;;;;22.73;14.70;;;14.20;99.90;;;;;;5084430;28;20181;-83
2021/07/22 02:21:45;;;;;;;21.47;14.07;;;14.20;99.90;;;;;;5083646;28;20204;-83
2021/07/22 02:24:13;;;;;;;24.30;14.63;;;14.20;99.90;;;;;;5085150;28;20173;-83
2021/07/22 02:26:38;;;;;;;21.93;14.67;;;14.20;99.90;;;;;;5084978;28;20204;-83
2021/07/22 02:29:05;;;;;;;21.63;14.80;;;14.30;99.90;;;;;;5083211;28;20180;-83
2021/07/22 02:31:31;;;;;;;20.07;14.70;;;14.20;99.90;;;;;;5083832;28;20244;-82
2021/07/22 02:33:57;;;;;;;23.23;14.10;;;14.20;99.90;;;;;;5082298;28;20198;-83
2021/07/22 02:36:23;;;;;;;20.73;13.93;;;14.10;99.90;;;;;;5081296;28;20173;-83
2021/07/22 02:38:48;;;;;;;21.47;14.73;;;14.10;99.90;;;;;;5080828;28;20188;-82
2021/07/22 02:41:14;;;;;;;20.30;14.40;;;14.00;99.90;;;;;;5081405;28;20176;-82
2021/07/22 02:43:41;;;;;;;18.50;13.10;;;14.00;99.90;;;;;;5091040;28;20240;-83
2021/07/22 02:46:10;;;;;;;20.37;14.57;;;14.00;99.90;;;;;;5097678;28;20199;-83
2021/07/22 02:48:36;;;;;;;21.93;14.20;;;14.00;99.90;;;;;;5088990;28;20253;-83
2021/07/22 02:51:04;;;;;;;22.10;13.60;;;14.00;99.90;;;;;;5087564;28;20173;-83
2021/07/22 02:53:30;;;;;;;23.07;15.07;;;14.00;99.90;;;;;;5087330;28;20172;-83
2021/07/22 02:55:59;;;;;;;23.23;15.37;;;14.00;99.90;;;;;;5086405;28;20169;-83
2021/07/22 02:58:26;;;;;;;20.17;13.97;;;14.00;99.90;;;;;;5084750;28;20180;-83
2021/07/22 03:00:52;;;;;;;25.23;13.67;;;14.00;99.90;;;;;;5084678;28;20173;-82
2021/07/22 03:03:18;;;;;;;23.37;14.70;;;14.00;99.90;;;;;;5085015;28;20196;-83
2021/07/22 03:05:44;;;;;;;25.53;14.50;;;13.90;99.90;;;;;;5084909;28;20188;-83
2021/07/22 03:08:09;;;;;;;18.93;13.43;;;13.90;99.90;;;;;;5086652;28;20203;-83
2021/07/22 03:10:35;;;;;;;21.33;15.07;;;13.90;99.90;;;;;;5085297;28;20206;-82
2021/07/22 03:13:01;;;;;;;25.27;15.00;;;13.80;99.90;;;;;;5085243;28;20199;-83
2021/07/22 03:15:28;;;;;;;26.67;15.57;;;13.80;99.90;;;;;;5088109;28;20197;-83
2021/07/22 03:17:54;;;;;;;20.43;14.37;;;13.90;99.90;;;;;;5088176;28;20498;-83
2021/07/22 03:20:19;;;;;;;19.67;14.27;;;13.80;99.90;;;;;;5087113;28;20654;-83
2021/07/22 03:22:45;;;;;;;20.90;13.33;;;13.80;99.90;;;;;;5084132;28;20199;-83
2021/07/22 03:25:11;;;;;;;19.87;13.37;;;13.80;99.90;;;;;;5086040;28;20169;-83
2021/07/22 03:27:37;;;;;;;25.00;14.07;;;13.80;99.90;;;;;;5084921;28;20559;-83
2021/07/22 03:30:03;;;;;;;22.10;13.97;;;13.80;99.90;;;;;;5083596;28;20585;-83
2021/07/22 03:32:29;;;;;;;20.93;14.10;;;13.70;99.90;;;;;;5085271;28;20662;-83
2021/07/22 03:34:54;;;;;;;17.37;13.63;;;13.70;99.90;;;;;;5085071;28;20176;-83
2021/07/22 03:37:20;;;;;;;23.93;15.27;;;13.70;99.90;;;;;;5084879;28;20181;-84
2021/07/22 03:39:46;;;;;;;22.13;14.40;;;13.70;99.90;;;;;;5083207;28;20177;-83
2021/07/22 03:42:11;;;;;;;21.30;13.77;;;13.70;99.90;;;;;;5083608;28;20269;-83
2021/07/22 03:44:37;;;;;;;23.83;14.60;;;13.80;99.90;;;;;;5082468;28;20663;-84
2021/07/22 03:47:04;;;;;;;22.93;13.90;;;13.70;99.90;;;;;;5082222;28;20208;-84
2021/07/22 03:49:30;;;;;;;20.03;13.93;;;13.80;99.90;;;;;;5082314;28;20180;-84
2021/07/22 03:51:57;;;;;;;25.00;15.27;;;13.80;99.90;;;;;;5082796;28;20189;-84
2021/07/22 03:54:23;;;;;;;20.77;14.93;;;13.80;99.90;;;;;;5080711;28;20173;-84
2021/07/22 03:56:48;;;;;;;21.93;14.93;;;13.90;99.90;;;;;;5081318;28;20257;-83
2021/07/22 03:59:15;;;;;;;22.47;14.53;;;13.90;99.90;;;;;;5080819;28;20250;-83
2021/07/22 04:01:41;;;;;;;20.83;15.07;;;13.90;99.90;;;;;;5077997;28;20569;-84
2021/07/22 04:04:07;;;;;;;22.37;14.80;;;13.90;99.90;;;;;;5084953;28;20218;-83
2021/07/22 04:06:37;;;;;;;20.93;13.73;;;13.90;99.90;;;;;;5084110;28;20204;-84
2021/07/22 04:09:04;;;;;;;23.27;13.53;;;13.80;99.90;;;;;;5083416;28;20249;-84
2021/07/22 04:11:30;;;;;;;21.40;13.57;;;13.90;99.90;;;;;;5082616;28;20195;-84
2021/07/22 04:13:56;;;;;;;23.33;15.87;;;13.90;99.90;;;;;;5084365;28;20169;-84
2021/07/22 04:16:22;;;;;;;24.20;13.70;;;13.90;99.90;;;;;;5084646;28;20183;-86
2021/07/22 04:18:47;;;;;;;21.03;14.77;;;13.90;99.90;;;;;;5082913;28;20580;-84
2021/07/22 04:21:13;;;;;;;21.57;14.73;;;13.90;99.90;;;;;;5085587;28;20173;-83
2021/07/22 04:23:39;;;;;;;19.63;14.23;;;13.90;99.90;;;;;;5084649;28;20176;-85
2021/07/22 04:26:05;;;;;;;21.97;14.33;;;;;;;;;;5083837;28;20176;-84
2021/07/22 04:28:31;;;;;;;21.40;14.77;;;14.00;99.90;;;;;;5083262;28;20682;-83
2021/07/22 04:30:57;;;;;;;22.00;14.27;;;14.00;99.90;;;;;;5084217;28;20181;-83
2021/07/22 04:33:22;;;;;;;22.17;13.50;;;14.10;99.90;;;;;;5082860;28;20227;-84
2021/07/22 04:35:48;;;;;;;19.13;13.53;;;14.10;99.90;;;;;;5083839;28;20170;-84
2021/07/22 04:38:14;;;;;;;23.17;14.13;;;14.20;99.90;;;;;;5082412;28;20268;-84
2021/07/22 04:40:39;;;;;;;21.87;14.40;;;14.20;99.90;;;;;;5083988;28;20255;-83
2021/07/22 04:43:05;;;;;;;20.30;14.40;;;14.30;99.90;;;;;;5084012;28;20219;-83
2021/07/22 04:45:31;;;;;;;20.77;13.97;;;14.30;99.90;;;;;;5086369;28;20169;-83
2021/07/22 04:47:56;;;;;;;19.53;13.67;;;14.40;99.90;;;;;;5086641;28;20205;-84
2021/07/22 04:50:22;;;;;;;19.77;13.40;;;14.50;99.90;;;;;;5085429;28;20173;-84
2021/07/22 04:52:48;;;;;;;25.50;14.60;;;14.40;99.90;;;;;;5084021;28;20718;-83
2021/07/22 04:55:13;;;;;;;21.30;14.73;;;14.50;99.90;;;;;;5085435;28;20267;-83
2021/07/22 04:57:39;;;;;;;20.33;14.20;;;14.50;99.90;;;;;;5095420;28;20190;-84
2021/07/22 05:00:06;;;;;;;18.73;13.63;;;14.50;99.90;;;;;;5095023;28;20236;-83
2021/07/22 05:02:32;;;;;;;21.70;13.73;;;14.60;99.90;;;;;;5071429;28;20207;-83
2021/07/22 05:04:57;;;;;;;23.73;15.13;;;14.60;99.90;;;;;;5090416;28;20192;-83
2021/07/22 05:07:23;;;;;;;25.33;15.10;;;14.60;99.90;;;;;;5096584;28;20210;-83
2021/07/22 05:09:49;;;;;;;21.57;14.80;;;14.70;99.90;;;;;;5097974;28;20187;-83
2021/07/22 05:12:15;;;;;;;19.60;13.77;;;14.70;99.90;;;;;;5094921;28;20287;-83
2021/07/22 05:14:41;;;;;;;25.50;14.37;;;14.80;99.90;;;;;;5087096;28;20177;-83
2021/07/22 05:17:07;;;;;;;23.27;14.73;;;14.80;99.90;;;;;;5086422;28;20607;-84
2021/07/22 05:19:33;;;;;;;20.93;13.70;;;14.90;99.90;;;;;;5086188;28;20276;-84
2021/07/22 05:21:59;;;;;;;20.33;13.23;;;14.90;99.90;;;;;;5085380;28;20201;-84
2021/07/22 05:24:24;;;;;;;20.83;14.17;;;15.00;99.90;;;;;;5086847;28;20169;-84
2021/07/22 05:26:50;;;;;;;19.83;13.43;;;15.00;99.90;;;;;;5085736;28;20203;-83
2021/07/22 05:29:17;;;;;;;21.30;13.60;;;15.10;99.90;;;;;;5087501;28;20180;-84
2021/07/22 05:31:43;;;;;;;18.70;12.87;;;15.20;99.90;;;;;;5084210;28;20197;-83
2021/07/22 05:34:10;;;;;;;20.87;13.20;;;15.20;99.90;;;;;;5081713;28;20263;-83
2021/07/22 05:36:36;;;;;;;20.73;13.50;;;15.30;99.90;;;;;;5079839;28;20681;-84
2021/07/22 05:39:03;;;;;;;21.67;13.10;;;15.30;99.90;;;;;;5080909;28;20181;-84
2021/07/22 05:41:29;;;;;;;21.03;12.97;;;15.40;99.90;;;;;;5081728;28;20248;-83
2021/07/22 05:43:55;;;;;;;19.90;12.83;;;15.50;99.90;;;;;;5081444;28;20181;-83
2021/07/22 05:46:21;;;;;;;20.67;13.60;;;15.50;99.90;;;;;;5079048;28;20201;-83
2021/07/22 05:48:50;;;;;;;23.97;13.60;;;15.60;99.90;;;;;;5082483;28;20180;-83
2021/07/22 05:51:16;;;;;;;19.40;12.47;;;15.70;99.90;;;;;;5080190;28;20179;-83
2021/07/22 05:53:42;;;;;;;22.23;13.53;;;15.70;99.90;;;;;;5079100;28;20203;-84
2021/07/22 05:56:09;;;;;;;21.53;12.77;;;15.80;99.90;;;;;;5077970;28;20208;-85
2021/07/22 05:58:35;;;;;;;26.33;12.53;;;15.80;99.90;;;;;;5077507;28;20185;-83
2021/07/22 06:01:08;;;;;;;20.73;13.20;;;15.80;99.90;;;;;;5085056;28;20319;-84
2021/07/22 06:03:33;;;;;;;19.30;12.90;;;15.90;99.90;;;;;;5083677;28;20173;-83
2021/07/22 06:06:04;;;;;;;21.57;12.57;;;16.00;99.90;;;;;;5083194;28;20557;-83
2021/07/22 06:08:30;;;;;;;18.80;12.83;;;16.10;99.90;;;;;;5084512;28;20179;-83
2021/07/22 06:10:55;;;;;;;23.93;13.30;;;16.20;99.90;;;;;;5082059;28;20177;-83
2021/07/22 06:13:21;;;;;;;23.63;13.23;;;16.30;99.90;;;;;;5083557;28;20716;-83
2021/07/22 06:15:46;;;;;;;19.77;12.43;;;16.40;99.90;;;;;;5084185;28;20180;-83
2021/07/22 06:18:12;;;;;;;18.93;13.23;;;16.40;99.90;;;;;;5083367;28;20273;-83
2021/07/22 06:20:39;;;;;;;20.43;12.87;;;16.50;99.90;;;;;;5082926;28;20218;-83
2021/07/22 06:23:05;;;;;;;18.33;13.10;;;16.50;99.90;;;;;;5082983;28;20197;-83
2021/07/22 06:25:30;;;;;;;20.33;13.37;;;16.60;99.90;;;;;;5084376;28;20210;-83
2021/07/22 06:27:57;;;;;;;22.00;12.47;;;16.70;99.90;;;;;;5083218;28;20213;-83
2021/07/22 06:30:23;;;;;;;20.90;12.27;;;16.80;99.90;;;;;;5084468;28;20173;-83
2021/07/22 06:32:48;;;;;;;23.60;13.13;;;16.90;99.90;;;;;;5084260;28;20200;-83
2021/07/22 06:35:14;;;;;;;18.70;12.53;;;16.90;99.90;;;;;;5084010;28;20179;-83
2021/07/22 06:37:47;;;;;;;19.33;12.00;;;17.00;99.90;;;;;;5085227;28;20200;-83
2021/07/22 06:40:14;;;;;;;18.20;12.13;;;17.10;99.90;;;;;;5083638;28;20226;-83
2021/07/22 06:42:40;;;;;;;18.40;12.43;;;17.20;99.90;;;;;;5083793;28;20205;-83
2021/07/22 06:45:06;;;;;;;22.07;13.30;;;17.30;99.90;;;;;;5085909;28;20209;-83
2021/07/22 06:47:32;;;;;;;18.20;11.87;;;17.40;99.90;;;;;;5084987;28;20201;-83
2021/07/22 06:49:58;;;;;;;18.10;11.77;;;17.50;99.90;;;;;;5088757;28;20188;-82
2021/07/22 06:52:23;;;;;;;16.03;11.17;;;17.60;99.90;;;;;;5085558;28;20193;-81
2021/07/22 06:54:49;;;;;;;18.23;12.37;;;17.70;99.90;;;;;;5080158;28;20207;-82
2021/07/22 06:57:14;;;;;;;19.93;11.87;;;17.80;99.90;;;;;;5080452;28;20200;-82
2021/07/22 06:59:40;;;;;;;17.33;11.90;;;18.00;99.90;;;;;;5078142;28;20185;-81
2021/07/22 07:02:06;;;;;;;17.67;12.13;;;18.20;99.90;;;;;;5078148;28;20675;-82
2021/07/22 07:04:31;;;;;;;16.80;11.27;;;18.20;99.90;;;;;;5076879;28;20186;-82
2021/07/22 07:06:57;;;;;;;17.00;11.50;;;18.30;99.90;;;;;;5078059;28;20765;-82
2021/07/22 07:09:22;;;;;;;16.73;10.90;;;18.40;99.90;;;;;;5084576;28;20182;-82
2021/07/22 07:11:48;;;;;;;14.67;10.90;;;18.50;99.90;;;;;;5097693;28;20213;-81
2021/07/22 07:14:14;;;;;;;17.20;10.43;;;18.60;99.90;;;;;;5093312;28;20648;-81
2021/07/22 07:16:40;;;;;;;16.20;10.97;;;18.70;99.90;;;;;;5081317;28;20264;-82
2021/07/22 07:19:07;;;;;;;15.97;10.30;;;18.80;99.90;;;;;;5081446;28;20178;-82
2021/07/22 07:21:38;;;;;;;19.30;11.37;;;18.90;99.90;;;;;;5080749;28;20200;-82
2021/07/22 07:24:05;;;;;;;16.33;11.13;;;19.00;99.90;;;;;;5083214;28;20186;-82
2021/07/22 07:26:31;;;;;;;16.83;11.13;;;19.10;99.90;;;;;;5083042;28;20258;-82
2021/07/22 07:28:56;;;;;;;19.43;11.37;;;19.20;99.90;;;;;;5082346;28;20639;-82
2021/07/22 07:31:23;;;;;;;15.87;11.43;;;19.60;99.90;;;;;;5080482;28;20646;-82
2021/07/22 07:33:49;;;;;;;22.30;11.27;;;19.60;99.90;;;;;;5080658;28;20181;-82
2021/07/22 07:36:15;;;;;;;18.50;11.07;;;19.70;99.90;;;;;;5081540;28;20181;-82
2021/07/22 07:38:40;;;;;;;15.47;11.70;;;19.90;99.90;;;;;;5080477;28;20181;-82
2021/07/22 07:41:06;;;;;;;16.43;10.93;;;20.20;99.90;;;;;;5081146;28;20177;-82
2021/07/22 07:43:32;;;;;;;17.07;11.50;;;20.20;99.90;;;;;;5079738;28;20191;-82
2021/07/22 07:45:57;;;;;;;15.90;11.13;;;20.40;99.90;;;;;;5079398;28;20177;-82
2021/07/22 07:48:23;;;;;;;16.83;12.40;;;20.50;99.90;;;;;;5078140;28;20686;-82
2021/07/22 07:50:49;;;;;;;24.30;12.17;;;20.60;99.90;;;;;;5078380;28;20200;-82
2021/07/22 07:53:17;;;;;;;17.23;10.93;;;20.70;99.90;;;;;;5078313;28;20575;-81
2021/07/22 07:55:43;;;;;;;15.30;11.80;;;20.80;99.90;;;;;;5075997;28;20571;-82
2021/07/22 07:58:09;;;;;;;17.67;12.27;;;20.90;99.90;;;;;;5084355;28;20177;-82
2021/07/22 08:00:36;;;;;;;17.83;11.33;;;21.10;99.90;;;;;;5083609;28;20595;-82
2021/07/22 08:03:02;;;;;;;16.50;11.70;;;21.10;99.90;;;;;;5082446;28;20208;-82
2021/07/22 08:05:28;;;;;;;16.33;11.43;;;21.30;99.90;;;;;;5082758;28;20224;-82
2021/07/22 08:07:55;;;;;;;14.77;11.17;;;21.40;99.90;;;;;;5083078;28;20201;-82
2021/07/22 08:10:21;;;;;;;16.90;11.10;;;21.50;99.90;;;;;;5084129;28;20173;-82
2021/07/22 08:12:47;;;;;;;22.67;12.27;;;21.60;99.90;;;;;;5085028;28;20208;-82
2021/07/22 08:15:13;;;;;;;17.00;11.57;;;21.80;99.90;;;;;;5082225;28;20185;-82
2021/07/22 08:17:39;;;;;;;20.67;11.83;;;21.90;99.90;;;;;;5087088;28;20192;-82
2021/07/22 08:20:06;;;;;;;17.00;11.87;;;22.00;99.90;;;;;;5087321;28;20176;-83
2021/07/22 08:22:35;;;;;;;22.60;12.37;;;22.20;99.90;;;;;;5086262;28;20216;-82
2021/07/22 08:25:01;;;;;;;19.50;12.07;;;22.30;99.90;;;;;;5084449;28;20232;-82
2021/07/22 08:27:32;;;;;;;16.10;12.20;;;22.50;99.90;;;;;;5082490;28;20677;-82
2021/07/22 08:29:58;;;;;;;14.97;10.80;;;22.60;99.90;;;;;;5088153;28;20184;-82
2021/07/22 08:32:24;;;;;;;16.50;10.37;;;22.70;99.90;;;;;;5088027;28;20196;-82
2021/07/22 08:34:50;;;;;;;14.07;10.10;;;22.80;99.90;;;;;;5090561;28;20184;-83
2021/07/22 08:37:16;;;;;;;14.40;10.37;;;22.80;99.90;;;;;;5089436;28;20187;-83
2021/07/22 08:39:44;;;;;;;13.90;10.80;;;23.00;99.90;;;;;;5088274;28;20177;-82
2021/07/22 08:42:11;;;;;;;13.83;10.63;;;23.10;99.90;;;;;;5096347;28;20201;-82
2021/07/22 08:44:39;;;;;;;15.73;10.80;;;23.30;99.90;;;;;;5098566;28;20180;-82
2021/07/22 08:47:06;;;;;;;13.57;9.80;;;23.30;99.90;;;;;;5094616;28;20269;-82
2021/07/22 08:49:36;;;;;;;13.33;10.37;;;23.50;99.90;;;;;;5085713;28;20182;-83
2021/07/22 08:52:12;;;;;;;14.27;10.37;;;23.60;99.90;;;;;;5086955;28;20276;-82
2021/07/22 08:54:39;;;;;;;12.37;10.27;;;23.80;99.90;;;;;;5087615;28;20168;-82
2021/07/22 08:57:12;;;;;;;14.70;10.17;;;24.00;99.90;;;;;;5084041;28;20207;-82
2021/07/22 08:59:38;;;;;;;13.80;9.90;;;24.10;99.90;;;;;;5084874;28;20287;-82
2021/07/22 09:02:05;;;;;;;13.07;9.67;;;24.30;99.90;;;;;;5084972;28;20194;-81
2021/07/22 09:04:49;;;;;;;13.20;9.83;;;24.40;99.90;;;;;;5082776;28;20193;-82
2021/07/22 09:07:16;;;;;;;11.77;8.57;;;24.50;99.90;;;;;;5082882;28;20227;-82
2021/07/22 09:09:41;;;;;;;13.03;9.53;;;24.50;99.90;;;;;;5083737;28;20174;-82
2021/07/22 09:12:07;;;;;;;9.80;8.80;;;24.60;99.90;;;;;;5082945;28;20601;-82
2021/07/22 09:14:35;;;;;;;13.47;9.63;;;24.70;99.90;;;;;;5081793;28;20708;-82
2021/07/22 09:17:01;;;;;;;12.03;9.37;;;24.80;99.90;;;;;;5082236;28;20182;-82
2021/07/22 09:19:40;;;;;;;15.43;9.43;;;24.90;99.90;;;;;;5081519;28;20208;-82
2021/07/22 09:22:10;;;;;;;15.50;9.17;;;25.10;99.90;;;;;;5091820;28;20177;-81
2021/07/22 09:24:53;;;;;;;12.63;8.70;;;25.20;99.90;;;;;;5099429;28;20235;-81
2021/07/22 09:27:40;;;;;;;10.17;9.03;;;25.30;99.90;;;;;;5089065;28;20212;-81
2021/07/22 09:30:11;;;;;;;11.77;8.80;;;25.40;99.90;;;;;;5086075;28;20257;-83
2021/07/22 09:32:41;;;;;;;13.23;9.23;;;25.60;99.90;;;;;;5088034;28;20281;-82
2021/07/22 09:35:13;;;;;;;12.17;8.87;;;25.70;99.90;;;;;;5084313;28;20162;-83
2021/07/22 09:37:44;;;;;;;13.10;9.53;;;25.90;99.90;;;;;;5081546;28;20185;-81
2021/07/22 09:40:15;;;;;;;15.27;8.80;;;26.10;99.90;;;;;;5081719;28;20873;-83
2021/07/22 09:42:50;;;;;;;10.80;8.80;;;26.20;99.90;;;;;;5082594;28;20210;-83
2021/07/22 09:45:20;;;;;;;12.73;8.50;;;26.40;99.90;;;;;;5080041;28;20185;-83
2021/07/22 09:47:46;;;;;;;11.77;9.50;;;26.50;99.90;;;;;;5079289;28;20200;-81
2021/07/22 09:50:17;;;;;;;12.03;8.67;;;26.50;99.90;;;;;;5078656;28;20264;-80
2021/07/22 09:52:45;;;;;;;12.13;8.80;;;26.60;99.90;;;;;;5078107;28;20637;-80
2021/07/22 09:55:43;;;;;;;12.40;9.07;;;26.60;99.90;;;;;;5084240;28;20191;-81
2021/07/22 09:58:10;;;;;;;9.90;8.47;;;26.70;99.90;;;;;;5050397;28;20190;-80
2021/07/22 10:00:43;;;;;;;9.80;8.67;;;26.90;99.90;;;;;;5083662;28;20188;-81
2021/07/22 10:03:14;;;;;;;11.37;8.63;;;27.00;99.90;;;;;;5083109;28;20205;-81
2021/07/22 10:05:47;;;;;;;12.30;8.50;;;27.20;99.90;;;;;;5083589;28;20232;-81
2021/07/22 10:08:22;;;;;;;10.10;8.70;;;27.30;99.90;;;;;;5084173;28;20206;-81
2021/07/22 10:10:53;;;;;;;10.63;9.00;;;27.40;99.90;;;;;;5083798;28;20173;-81
2021/07/22 10:13:37;;;;;;;13.97;9.30;;;27.40;99.90;;;;;;5084382;28;20214;-81
2021/07/22 10:16:09;;;;;;;13.37;9.13;;;27.30;99.90;;;;;;5084561;28;20173;-81
2021/07/22 10:18:40;;;;;;;10.83;8.53;;;27.30;99.90;;;;;;5086797;28;20171;-82
2021/07/22 10:21:06;;;;;;;10.10;8.43;;;27.40;99.90;;;;;;5088179;28;20202;-81
2021/07/22 10:23:33;;;;;;;9.37;7.97;;;27.60;99.90;;;;;;5084687;28;20176;-82
2021/07/22 10:25:59;;;;;;;11.07;8.00;;;27.70;99.90;;;;;;5084144;28;20586;-81
2021/07/22 10:28:27;;;;;;;9.97;7.97;;;27.80;99.90;;;;;;5075312;28;20267;-81
2021/07/22 10:30:55;;;;;;;11.23;8.13;;;28.00;99.90;;;;;;5069048;28;20188;-82
2021/07/22 10:33:22;;;;;;;9.40;8.33;;;28.20;99.90;;;;;;5063962;28;20190;-82
2021/07/22 10:35:52;;;;;;;9.53;8.53;;;28.30;99.90;;;;;;5063981;28;20638;-82
2021/07/22 10:38:21;;;;;;;9.30;8.03;;;28.30;99.90;;;;;;5064193;28;20238;-82
2021/07/22 10:40:55;;;;;;;8.83;7.93;;;28.30;99.90;;;;;;5063477;28;20182;-82
2021/07/22 10:43:40;;;;;;;11.63;8.30;;;28.30;99.90;;;;;;5063494;28;20197;-82
2021/07/22 10:46:10;;;;;;;9.73;7.93;;;28.50;99.90;;;;;;5063366;28;20701;-82
2021/07/22 10:48:36;;;;;;;10.40;7.93;;;28.70;99.90;;;;;;5079219;28;20177;-83
2021/07/22 10:51:12;;;;;;;9.30;7.67;;;28.90;99.90;;;;;;5064742;28;20174;-83
2021/07/22 10:53:39;;;;;;;9.17;7.43;;;29.10;99.90;;;;;;5065930;28;20181;-82
2021/07/22 10:56:07;;;;;;;9.57;7.87;;;29.10;99.90;;;;;;5061460;28;20179;-82
2021/07/22 10:58:33;;;;;;;12.30;8.57;;;29.10;99.90;;;;;;5062239;28;20221;-83
2021/07/22 11:00:59;;;;;;;11.90;8.50;;;29.00;99.90;;;;;;5059662;28;20175;-82
2021/07/22 11:06:02;;;;;;;10.23;8.43;;;29.00;99.90;;;;;;5063070;28;20203;-82
2021/07/22 11:08:29;;;;;;;8.97;8.07;;;29.10;99.90;;;;;;5078393;28;20185;-82
2021/07/22 11:11:03;;;;;;;9.40;8.33;;;29.40;99.90;;;;;;5061540;28;20599;-83
2021/07/22 11:13:38;;;;;;;9.87;8.67;;;29.40;99.90;;;;;;5063620;28;20356;-83
2021/07/22 11:16:25;;;;;;;11.20;7.80;;;29.40;99.90;;;;;;5062202;28;20202;-83
2021/07/22 11:18:59;;;;;;;9.40;7.63;;;29.70;99.90;;;;;;5061863;28;20178;-84
2021/07/22 11:21:29;;;;;;;10.70;8.60;;;29.90;99.90;;;;;;5061495;28;20185;-83
2021/07/22 11:23:55;;;;;;;14.27;8.47;;;29.80;99.90;;;;;;5060588;28;20545;-83
2021/07/22 11:26:32;;;;;;;8.90;8.00;;;29.30;99.60;;;;;;5061421;28;20177;-83
2021/07/22 11:28:58;;;;;;;10.87;8.67;;;29.30;99.90;;;;;;5076041;28;20169;-83
2021/07/22 11:31:24;;;;;;;13.33;8.27;;;29.60;99.90;;;;;;5062398;28;20177;-82
2021/07/22 11:33:50;;;;;;;12.33;8.40;;;30.10;99.90;;;;;;5074993;28;20218;-83
2021/07/22 11:36:18;;;;;;;10.03;8.80;;;30.20;99.90;;;;;;5092740;28;20200;-83
2021/07/22 11:38:51;;;;;;;11.80;8.57;;;30.20;99.90;;;;;;5065267;28;20174;-83
2021/07/22 11:41:17;;;;;;;10.60;7.30;;;;;;;;;;5062836;28;20197;-83
2021/07/22 11:43:52;;;;;;;9.37;8.03;;;30.40;99.90;;;;;;5067148;28;20205;-84
2021/07/22 11:46:33;;;;;;;10.13;7.83;;;31.30;98.90;;;;;;5063019;28;20174;-84
2021/07/22 11:49:05;;;;;;;10.10;8.00;;;31.20;99.30;;;;;;5063744;28;20183;-84
2021/07/22 11:51:31;;;;;;;12.93;8.97;;;31.20;95.90;;;;;;5064691;28;20227;-82
2021/07/22 11:53:57;;;;;;;11.37;8.77;;;31.10;95.00;;;;;;5066596;28;20175;-83
2021/07/22 11:56:23;;;;;;;10.40;8.40;;;31.10;96.10;;;;;;5066448;28;20204;-82
2021/07/22 11:58:50;;;;;;;9.87;8.87;;;31.20;99.90;;;;;;5067120;28;20199;-82
2021/07/22 12:01:17;;;;;;;12.03;8.80;;;31.30;99.90;;;;;;5083492;28;20175;-82
2021/07/22 12:03:47;;;;;;;15.20;8.83;;;31.30;98.00;;;;;;5069153;28;20176;-82
2021/07/22 12:06:23;;;;;;;12.10;9.43;;;31.10;99.80;;;;;;5072899;28;20177;-82
2021/07/22 12:09:09;;;;;;;11.57;8.63;;;31.60;98.70;;;;;;5076822;28;20171;-81
2021/07/22 12:11:54;;;;;;;10.53;8.13;;;31.80;98.70;;;;;;5075762;28;20189;-82
2021/07/22 12:14:25;;;;;;;10.43;8.87;;;32.10;94.90;;;;;;5068169;28;20182;-82
2021/07/22 12:16:52;;;;;;;9.50;8.50;;;32.10;97.30;;;;;;5067558;28;20202;-82
2021/07/22 12:19:25;;;;;;;8.93;8.03;;;32.00;96.20;;;;;;5065892;28;20276;-82
2021/07/22 12:22:21;;;;;;;9.50;8.53;;;31.00;94.40;;;;;;5067811;28;20191;-82
2021/07/22 12:24:54;;;;;;;10.83;8.53;;;29.90;94.40;;;;;;5067657;28;20550;-82
2021/07/22 12:27:49;;;;;;;17.67;8.87;;;29.70;99.90;;;;;;5081746;28;20216;-82
2021/07/22 12:30:21;;;;;;;17.40;8.73;;;29.80;96.90;;;;;;5057238;28;20190;-81
2021/07/22 12:32:54;;;;;;;9.77;8.80;;;30.40;99.90;;;;;;5062747;28;20196;-85
2021/07/22 12:35:40;;;;;;;11.23;8.47;;;31.20;99.10;;;;;;5062730;28;20175;-83